createdAt,value
2019-05-03T00:01:12.902Z,39.30
2019-05-03T00:03:17.178Z,41.68
2019-05-03T00:05:28.770Z,39.05
2019-05-03T00:07:32.671Z,38.25
2019-05-03T00:09:36.780Z,44.00
2019-05-03T00:11:42.210Z,43.98
2019-05-03T00:13:46.337Z,41.45
2019-05-03T00:15:54.949Z,39.60
2019-05-03T00:17:58.954Z,42.27
2019-05-03T00:20:02.964Z,42.15
2019-05-03T00:22:06.996Z,47.33
2019-05-03T00:24:11.903Z,41.88
2019-05-03T00:26:15.906Z,43.95
2019-05-03T00:28:21.562Z,44.05
2019-05-03T00:30:31.985Z,43.87
2019-05-03T00:32:36.152Z,46.28
2019-05-03T00:34:53.526Z,45.83
2019-05-03T00:36:58.984Z,42.03
2019-05-03T00:39:04.586Z,45.25
2019-05-03T00:41:08.438Z,45.70
2019-05-03T00:43:12.325Z,44.83
2019-05-03T00:45:16.203Z,43.08
2019-05-03T00:47:22.037Z,46.55
2019-05-03T00:49:25.592Z,43.87
2019-05-03T00:51:31.783Z,47.93
2019-05-03T00:53:35.717Z,46.13
2019-05-03T00:55:39.569Z,44.63
2019-05-03T00:57:43.456Z,45.25
2019-05-03T00:59:47.334Z,49.55
2019-05-03T01:04:19.526Z,46.02
2019-05-03T01:06:23.407Z,49.70
2019-05-03T01:08:27.281Z,44.38
2019-05-03T01:10:32.945Z,46.13
2019-05-03T01:12:36.754Z,46.55
2019-05-03T01:14:42.215Z,51.73
2019-05-03T01:16:46.103Z,50.63
2019-05-03T01:18:50.038Z,50.05
2019-05-03T01:20:55.955Z,48.52
2019-05-03T01:23:01.945Z,50.95
2019-05-03T01:25:07.281Z,46.33
2019-05-03T01:27:12.420Z,47.33
2019-05-03T01:29:16.444Z,46.05
2019-05-03T01:31:22.524Z,43.25
2019-05-03T01:33:25.962Z,49.58
2019-05-03T01:35:32.153Z,47.67
2019-05-03T01:37:35.504Z,48.15
2019-05-03T01:39:39.434Z,47.03
2019-05-03T01:41:43.263Z,48.70
2019-05-03T01:43:47.170Z,44.00
2019-05-03T01:45:51.875Z,48.78
2019-05-03T01:48:01.931Z,49.85
2019-05-03T01:50:07.583Z,43.63
2019-05-03T01:52:25.227Z,49.10
2019-05-03T01:54:29.166Z,48.02
2019-05-03T01:56:33.005Z,43.30
2019-05-03T01:58:36.943Z,46.25
2019-05-03T02:00:42.321Z,43.98
2019-05-03T02:02:47.905Z,47.90
2019-05-03T02:04:53.466Z,43.63
2019-05-03T02:06:57.378Z,46.45
2019-05-03T02:09:01.681Z,46.37
2019-05-03T02:11:05.589Z,44.45
2019-05-03T02:13:09.503Z,42.60
2019-05-03T02:15:13.363Z,47.62
2019-05-03T02:17:17.261Z,37.93
2019-05-03T02:19:21.999Z,40.20
2019-05-03T02:21:26.038Z,43.42
2019-05-03T02:23:31.832Z,38.65
2019-05-03T02:25:35.511Z,43.33
2019-05-03T02:27:39.560Z,39.63
2019-05-03T02:29:43.450Z,42.27
2019-05-03T02:31:47.361Z,54.42
2019-05-03T02:33:53.338Z,47.13
2019-05-03T02:35:56.819Z,43.63
2019-05-03T02:38:03.363Z,45.20
2019-05-03T02:40:07.011Z,42.23
2019-05-03T02:42:11.803Z,45.95
2019-05-03T02:44:17.564Z,45.38
2019-05-03T02:46:26.016Z,41.35
2019-05-03T02:48:31.512Z,43.15
2019-05-03T02:50:36.070Z,40.63
2019-05-03T02:52:40.164Z,43.83
2019-05-03T02:54:46.461Z,43.85
2019-05-03T02:56:49.679Z,46.40
2019-05-03T02:58:55.764Z,43.83
2019-05-03T03:01:06.520Z,43.00
2019-05-03T03:03:09.451Z,42.17
2019-05-03T03:05:16.442Z,45.65
2019-05-03T03:07:20.103Z,43.52
2019-05-03T03:09:26.034Z,43.68
2019-05-03T03:11:32.119Z,41.35
2019-05-03T03:13:38.139Z,43.58
2019-05-03T03:15:45.828Z,47.45
2019-05-03T03:17:52.053Z,47.38
2019-05-03T03:19:57.804Z,40.03
2019-05-03T03:22:05.999Z,39.00
2019-05-03T03:24:17.160Z,43.30
2019-05-03T03:26:36.478Z,41.02
2019-05-03T03:28:29.350Z,37.93
2019-05-03T03:31:09.436Z,40.40
2019-05-03T03:33:17.493Z,40.58
2019-05-03T03:35:29.158Z,40.50
2019-05-03T03:37:29.515Z,38.15
2019-05-03T03:39:35.991Z,39.75
2019-05-03T03:41:39.554Z,40.73
2019-05-03T03:43:48.316Z,37.93
2019-05-03T03:45:52.301Z,36.77
2019-05-03T03:47:57.266Z,36.80
2019-05-03T03:50:05.925Z,38.25
2019-05-03T03:52:11.756Z,41.02
2019-05-03T03:54:18.284Z,41.18
2019-05-03T03:56:25.425Z,40.43
2019-05-03T03:58:28.748Z,39.65
2019-05-03T04:00:32.675Z,38.02
2019-05-03T04:02:37.894Z,44.05
2019-05-03T04:04:41.722Z,38.38
2019-05-03T04:06:46.616Z,37.88
2019-05-03T04:08:50.605Z,42.80
2019-05-03T04:10:55.873Z,39.60
2019-05-03T04:13:00.105Z,38.25
2019-05-03T04:15:25.814Z,37.98
2019-05-03T04:17:47.315Z,40.25
2019-05-03T04:19:55.913Z,35.13
2019-05-03T04:21:59.770Z,34.80
2019-05-03T04:24:05.954Z,37.38
2019-05-03T04:26:09.237Z,37.48
2019-05-03T04:28:19.231Z,35.70
2019-05-03T04:30:25.424Z,37.65
2019-05-03T04:32:29.206Z,35.15
2019-05-03T04:34:35.673Z,37.42
2019-05-03T04:36:38.751Z,33.85
2019-05-03T04:38:45.192Z,36.83
2019-05-03T04:40:48.136Z,37.83
2019-05-03T04:42:52.014Z,37.08
2019-05-03T04:44:56.464Z,37.08
2019-05-03T04:47:00.583Z,40.67
2019-05-03T04:49:05.703Z,39.80
2019-05-03T04:51:09.744Z,35.17
2019-05-03T04:53:15.950Z,38.70
2019-05-03T04:55:19.119Z,32.85
2019-05-03T04:57:36.509Z,34.95
2019-05-03T04:59:28.565Z,37.55
2019-05-03T05:01:35.133Z,37.10
2019-05-03T05:03:37.987Z,27.93
2019-05-03T05:05:41.871Z,26.15
2019-05-03T05:07:46.020Z,24.40
2019-05-03T05:09:50.034Z,25.50
2019-05-03T05:11:54.892Z,21.75
2019-05-03T05:13:58.840Z,21.00
2019-05-03T05:16:02.687Z,20.62
2019-05-03T05:18:23.213Z,21.10
2019-05-03T05:20:28.653Z,14.58
2019-05-03T05:22:35.005Z,12.40
2019-05-03T05:24:39.165Z,11.28
2019-05-03T05:26:47.582Z,10.43
2019-05-03T05:28:54.882Z,7.50
2019-05-03T05:30:59.106Z,8.43
2019-05-03T05:33:02.963Z,7.55
2019-05-03T05:35:08.132Z,6.83
2019-05-03T05:37:12.111Z,6.25
2019-05-03T05:39:18.687Z,8.28
2019-05-03T05:41:24.373Z,9.03
2019-05-03T05:43:27.991Z,5.35
2019-05-03T05:45:31.813Z,7.20
2019-05-03T05:47:37.301Z,6.60
2019-05-03T05:49:57.838Z,4.08
2019-05-03T05:52:04.907Z,5.00
2019-05-03T05:54:08.811Z,4.20
2019-05-03T05:56:17.849Z,4.22
2019-05-03T05:58:25.710Z,4.33
2019-05-03T06:00:30.379Z,3.65
2019-05-03T06:02:35.881Z,3.30
2019-05-03T06:04:39.933Z,4.45
2019-05-03T06:06:55.352Z,3.17
2019-05-03T06:09:15.322Z,5.37
2019-05-03T06:11:20.874Z,4.17
2019-05-03T06:13:26.758Z,6.87
2019-05-03T06:15:48.636Z,6.00
2019-05-03T06:17:55.473Z,5.60
2019-05-03T06:20:00.915Z,5.45
2019-05-03T06:22:09.056Z,2.85
2019-05-03T06:24:20.242Z,5.87
2019-05-03T06:26:31.887Z,5.47
2019-05-03T06:28:35.851Z,9.20
2019-05-03T06:30:45.710Z,5.72
2019-05-03T06:32:49.863Z,4.50
2019-05-03T06:34:54.624Z,6.62
2019-05-03T06:37:05.866Z,6.42
2019-05-03T06:39:09.755Z,6.47
2019-05-03T06:41:15.072Z,5.85
2019-05-03T06:43:19.035Z,8.83
2019-05-03T06:45:24.970Z,6.53
2019-05-03T06:47:28.642Z,7.03
2019-05-03T06:49:34.457Z,6.65
2019-05-03T06:51:40.066Z,5.72
2019-05-03T06:53:47.543Z,7.95
2019-05-03T06:55:49.056Z,5.40
2019-05-03T06:57:54.604Z,5.37
2019-05-03T07:00:03.033Z,17.32
2019-05-03T07:02:25.562Z,7.17
2019-05-03T07:06:40.876Z,5.45
2019-05-03T07:09:05.329Z,5.45
2019-05-03T07:11:10.182Z,5.20
2019-05-03T07:13:15.204Z,4.65
2019-05-03T07:15:19.236Z,6.25
2019-05-03T07:17:24.845Z,5.05
2019-05-03T07:19:28.603Z,6.58
2019-05-03T07:21:32.450Z,6.53
2019-05-03T07:23:36.324Z,6.12
2019-05-03T07:25:40.300Z,5.17
2019-05-03T07:27:45.231Z,6.45
2019-05-03T07:29:49.192Z,5.05
2019-05-03T07:32:15.483Z,6.72
2019-05-03T07:34:15.629Z,5.92
2019-05-03T07:36:19.584Z,6.87
2019-05-03T07:38:24.823Z,6.47
2019-05-03T07:40:28.871Z,9.15
2019-05-03T07:42:34.596Z,8.18
2019-05-03T07:44:38.317Z,7.40
2019-05-03T07:46:42.187Z,6.80
2019-05-03T07:48:46.026Z,6.60
2019-05-03T07:50:49.942Z,4.28
2019-05-03T07:52:55.572Z,10.03
2019-05-03T07:54:59.318Z,6.15
2019-05-03T07:57:05.151Z,5.22
2019-05-03T07:59:09.328Z,5.65
2019-05-03T08:01:20.746Z,6.10
2019-05-03T08:03:24.659Z,7.15
2019-05-03T08:05:28.513Z,6.75
2019-05-03T08:07:32.345Z,8.58
2019-05-03T08:09:36.310Z,8.53
2019-05-03T08:11:40.247Z,6.62
2019-05-03T08:13:44.640Z,7.58
2019-05-03T08:15:48.653Z,5.35
2019-05-03T08:17:52.533Z,9.28
2019-05-03T08:19:56.424Z,5.78
2019-05-03T08:22:00.248Z,9.60
2019-05-03T08:24:04.675Z,5.17
2019-05-03T08:26:08.715Z,6.42
2019-05-03T08:28:14.416Z,8.25
2019-05-03T08:30:20.007Z,5.87
2019-05-03T08:32:31.174Z,6.67
2019-05-03T08:34:36.864Z,6.92
2019-05-03T08:36:59.299Z,8.53
2019-05-03T08:39:05.352Z,5.75
2019-05-03T08:41:10.475Z,10.08
2019-05-03T08:43:15.609Z,4.95
2019-05-03T08:45:19.923Z,6.58
2019-05-03T08:47:24.763Z,5.40
2019-05-03T08:49:29.034Z,6.28
2019-05-03T08:51:32.923Z,4.17
2019-05-03T08:53:40.461Z,7.00
2019-05-03T08:55:44.941Z,7.03
2019-05-03T08:57:49.019Z,5.83
2019-05-03T08:59:54.778Z,9.50
2019-05-03T09:01:58.958Z,8.35
2019-05-03T09:04:04.947Z,5.70
2019-05-03T09:06:09.163Z,8.30
2019-05-03T09:08:15.560Z,6.58
2019-05-03T09:10:24.854Z,6.15
2019-05-03T09:12:30.064Z,7.17
2019-05-03T09:14:42.529Z,9.00
2019-05-03T09:16:39.515Z,8.38
2019-05-03T09:18:45.251Z,7.37
2019-05-03T09:20:48.969Z,7.42
2019-05-03T09:22:54.667Z,8.45
2019-05-03T09:24:58.327Z,8.25
2019-05-03T09:27:02.969Z,8.23
2019-05-03T09:29:08.086Z,10.72
2019-05-03T09:31:12.052Z,8.93
2019-05-03T09:33:16.094Z,10.10
2019-05-03T09:35:29.631Z,11.30
2019-05-03T09:37:25.491Z,10.10
2019-05-03T09:39:29.393Z,9.93
2019-05-03T09:41:34.722Z,13.20
2019-05-03T09:43:38.884Z,11.18
2019-05-03T09:45:42.759Z,9.33
2019-05-03T09:47:46.699Z,10.53
2019-05-03T09:49:50.804Z,8.35
2019-05-03T09:51:54.966Z,6.65
2019-05-03T09:54:00.628Z,10.85
2019-05-03T09:56:05.033Z,8.35
2019-05-03T09:58:09.095Z,8.33
2019-05-03T10:00:16.103Z,8.28
2019-05-03T10:02:19.563Z,8.00
2019-05-03T10:04:25.438Z,9.53
2019-05-03T10:06:29.390Z,9.95
2019-05-03T10:08:35.441Z,8.95
2019-05-03T10:10:56.773Z,13.90
2019-05-03T10:13:00.666Z,13.58
2019-05-03T10:15:06.584Z,11.78
2019-05-03T10:17:28.592Z,8.20
2019-05-03T10:19:37.703Z,9.70
2019-05-03T10:21:39.604Z,7.10
2019-05-03T10:23:45.196Z,9.03
2019-05-03T10:25:49.273Z,10.25
2019-05-03T10:27:54.924Z,8.20
2019-05-03T10:30:12.276Z,10.10
2019-05-03T10:32:11.778Z,7.33
2019-05-03T10:34:15.852Z,7.10
2019-05-03T10:36:20.058Z,15.20
2019-05-03T10:38:24.652Z,9.98
2019-05-03T10:40:31.764Z,10.08
2019-05-03T10:42:38.259Z,9.73
2019-05-03T10:44:41.245Z,11.83
2019-05-03T10:46:45.324Z,10.13
2019-05-03T10:48:49.274Z,13.53
2019-05-03T10:50:56.519Z,7.58
2019-05-03T10:53:08.406Z,8.38
2019-05-03T10:55:12.515Z,7.50
2019-05-03T10:57:24.816Z,9.15
2019-05-03T10:59:28.943Z,7.05
2019-05-03T11:01:54.426Z,7.10
2019-05-03T11:03:58.364Z,8.83
2019-05-03T11:06:02.232Z,12.50
2019-05-03T11:08:06.209Z,8.53
2019-05-03T11:10:10.949Z,9.03
2019-05-03T11:12:14.887Z,9.38
2019-05-03T11:14:18.899Z,6.78
2019-05-03T11:16:22.751Z,5.35
2019-05-03T11:18:26.631Z,10.63
2019-05-03T11:20:34.764Z,6.55
2019-05-03T11:22:38.727Z,6.53
2019-05-03T11:24:45.361Z,11.33
2019-05-03T11:26:50.664Z,9.33
2019-05-03T11:29:00.620Z,6.95
2019-05-03T11:31:25.056Z,7.20
2019-05-03T11:33:38.246Z,7.70
2019-05-03T11:35:44.690Z,10.88
2019-05-03T11:37:52.999Z,7.42
2019-05-03T11:39:56.864Z,8.65
2019-05-03T11:42:00.935Z,5.45
2019-05-03T11:44:24.562Z,8.25
2019-05-03T11:46:28.567Z,6.85
2019-05-03T11:48:45.488Z,7.08
2019-05-03T11:50:49.491Z,10.80
2019-05-03T11:52:55.374Z,7.83
2019-05-03T11:54:58.915Z,6.83
2019-05-03T11:57:05.065Z,7.60
2019-05-03T11:59:09.077Z,7.55
2019-05-03T12:01:20.059Z,5.92
2019-05-03T12:03:27.564Z,7.67
2019-05-03T12:05:32.288Z,5.55
2019-05-03T12:07:39.334Z,9.30
2019-05-03T12:09:41.657Z,6.65
2019-05-03T12:11:45.633Z,6.67
2019-05-03T12:14:01.680Z,6.95
2019-05-03T12:15:55.208Z,8.28
2019-05-03T12:18:10.669Z,8.10
2019-05-03T12:20:18.123Z,6.22
2019-05-03T12:22:21.110Z,5.75
2019-05-03T12:24:26.774Z,7.58
2019-05-03T12:26:41.604Z,7.50
2019-05-03T12:28:36.649Z,6.08
2019-05-03T12:30:40.831Z,4.62
2019-05-03T12:32:48.406Z,8.93
2019-05-03T12:34:52.328Z,7.20
2019-05-03T12:36:56.158Z,4.45
2019-05-03T12:39:00.072Z,7.67
2019-05-03T12:41:05.619Z,6.90
2019-05-03T12:43:09.526Z,7.15
2019-05-03T12:45:15.336Z,8.85
2019-05-03T12:47:22.128Z,7.35
2019-05-03T12:49:25.034Z,9.88
2019-05-03T12:51:29.090Z,9.65
2019-05-03T12:53:32.871Z,8.20
2019-05-03T12:55:36.747Z,9.63
2019-05-03T12:57:40.669Z,9.03
2019-05-03T12:59:46.092Z,9.48
2019-05-03T13:01:57.591Z,6.47
2019-05-03T13:04:05.999Z,7.78
2019-05-03T13:06:09.847Z,8.23
2019-05-03T13:08:35.004Z,8.25
2019-05-03T13:10:38.220Z,8.08
2019-05-03T13:12:50.550Z,8.53
2019-05-03T13:14:52.096Z,8.65
2019-05-03T13:16:56.077Z,7.25
2019-05-03T13:19:01.516Z,11.65
2019-05-03T13:21:06.162Z,5.15
2019-05-03T13:23:13.192Z,6.28
2019-05-03T13:25:17.216Z,9.20
2019-05-03T13:27:21.058Z,6.47
2019-05-03T13:29:25.634Z,9.45
2019-05-03T13:31:29.711Z,8.13
2019-05-03T13:33:34.747Z,5.67
2019-05-03T13:35:39.472Z,8.35
2019-05-03T13:37:45.325Z,7.25
2019-05-03T13:39:48.989Z,8.78
2019-05-03T13:41:54.847Z,10.08
2019-05-03T13:43:58.457Z,5.92
2019-05-03T13:46:04.894Z,7.50
2019-05-03T13:48:08.094Z,6.58
2019-05-03T13:50:12.413Z,6.45
2019-05-03T13:52:16.422Z,6.10
2019-05-03T13:54:20.262Z,9.08
2019-05-03T13:56:24.689Z,9.68
2019-05-03T13:58:28.746Z,7.87
2019-05-03T14:00:34.473Z,6.95
2019-05-03T14:02:38.249Z,6.28
2019-05-03T14:04:50.206Z,9.40
2019-05-03T14:06:47.803Z,6.90
2019-05-03T14:08:51.688Z,8.50
2019-05-03T14:10:55.968Z,9.13
2019-05-03T14:12:59.986Z,11.10
2019-05-03T14:15:05.738Z,10.13
2019-05-03T14:17:09.686Z,11.18
2019-05-03T14:19:15.204Z,8.68
2019-05-03T14:21:26.655Z,10.00
2019-05-03T14:23:30.457Z,6.17
2019-05-03T14:25:35.091Z,5.85
2019-05-03T14:27:39.103Z,13.55
2019-05-03T14:29:42.975Z,6.45
2019-05-03T14:31:46.854Z,6.03
2019-05-03T14:33:50.806Z,8.35
2019-05-03T14:35:54.847Z,3.75
2019-05-03T14:37:59.164Z,7.20
2019-05-03T14:40:04.989Z,6.03
2019-05-03T14:42:09.040Z,7.87
2019-05-03T14:44:17.162Z,5.15
2019-05-03T14:46:29.192Z,9.35
2019-05-03T14:48:24.830Z,5.85
2019-05-03T14:50:29.108Z,5.62
2019-05-03T14:52:34.618Z,8.03
2019-05-03T14:54:40.206Z,7.85
2019-05-03T14:56:46.263Z,5.30
2019-05-03T14:59:10.477Z,5.12
2019-05-03T15:01:21.768Z,6.15
2019-05-03T15:03:27.250Z,3.60
2019-05-03T15:05:31.257Z,6.40
2019-05-03T15:07:35.245Z,6.10
2019-05-03T15:09:40.777Z,7.37
2019-05-03T15:11:45.295Z,5.78
2019-05-03T15:13:49.387Z,11.80
2019-05-03T15:15:54.757Z,6.78
2019-05-03T15:17:58.863Z,8.48
2019-05-03T15:20:02.803Z,9.08
2019-05-03T15:22:06.728Z,15.32
2019-05-03T15:24:10.695Z,9.40
2019-05-03T15:26:14.590Z,7.42
2019-05-03T15:28:18.560Z,10.03
2019-05-03T15:30:22.387Z,6.65
2019-05-03T15:32:26.389Z,5.58
2019-05-03T15:34:30.359Z,7.60
2019-05-03T15:36:34.557Z,7.78
2019-05-03T15:38:38.467Z,8.23
2019-05-03T15:40:42.311Z,9.78
2019-05-03T15:42:47.804Z,11.65
2019-05-03T15:44:54.603Z,8.30
2019-05-03T15:47:09.123Z,5.28
2019-05-03T15:49:08.733Z,7.80
2019-05-03T15:51:24.899Z,7.90
2019-05-03T15:53:28.740Z,7.47
2019-05-03T15:55:32.687Z,9.78
2019-05-03T15:57:36.552Z,6.50
2019-05-03T15:59:40.422Z,10.45
2019-05-03T16:01:44.304Z,6.53
2019-05-03T16:03:48.140Z,8.43
2019-05-03T16:05:52.018Z,7.08
2019-05-03T16:07:55.956Z,7.62
2019-05-03T16:09:59.829Z,9.30
2019-05-03T16:12:05.087Z,7.03
2019-05-03T16:14:09.194Z,8.08
2019-05-03T16:16:14.989Z,8.95
2019-05-03T16:18:18.771Z,8.40
2019-05-03T16:20:22.664Z,5.72
2019-05-03T16:22:26.584Z,8.98
2019-05-03T16:24:30.494Z,9.20
2019-05-03T16:26:35.983Z,7.08
2019-05-03T16:28:47.153Z,7.80
2019-05-03T16:30:52.596Z,7.08
2019-05-03T16:32:56.654Z,6.22
2019-05-03T16:35:00.641Z,7.62
2019-05-03T16:37:04.804Z,5.47
2019-05-03T16:39:08.759Z,5.08
2019-05-03T16:41:12.709Z,6.92
2019-05-03T16:43:16.544Z,9.78
2019-05-03T17:18:55.235Z,15.18
2019-05-03T17:20:59.226Z,11.60
2019-05-03T17:23:04.825Z,9.80
2019-05-03T17:25:09.024Z,7.28
2019-05-03T17:27:13.006Z,8.48
2019-05-03T17:29:16.901Z,9.10
2019-05-03T17:31:20.768Z,8.08
2019-05-03T17:33:25.329Z,8.60
2019-05-03T17:35:29.356Z,8.10
2019-05-03T17:37:34.813Z,9.45
2019-05-03T17:39:46.519Z,6.90
2019-05-03T17:41:52.021Z,7.53
2019-05-03T17:44:00.224Z,7.25
2019-05-03T17:46:11.706Z,7.20
2019-05-03T17:48:15.724Z,7.50
2019-05-03T17:50:19.721Z,10.25
2019-05-03T17:52:45.014Z,16.27
2019-05-03T17:54:50.698Z,10.43
2019-05-03T17:57:05.128Z,8.25
2019-05-03T17:59:10.562Z,10.95
2019-05-03T18:01:22.050Z,10.50
2019-05-03T18:03:27.598Z,11.28
2019-05-03T18:05:38.909Z,9.25
2019-05-03T18:07:50.324Z,9.68
2019-05-03T18:09:55.798Z,10.28
2019-05-03T18:12:06.375Z,10.05
2019-05-03T18:14:10.368Z,8.73
2019-05-03T18:16:14.375Z,8.38
2019-05-03T18:18:18.381Z,7.65
2019-05-03T18:20:22.493Z,8.78
2019-05-03T18:22:26.326Z,11.80
2019-05-03T18:24:30.302Z,12.85
2019-05-03T18:26:38.547Z,10.38
2019-05-03T18:28:46.335Z,12.00
2019-05-03T18:30:54.707Z,9.15
2019-05-03T18:33:00.156Z,13.13
2019-05-03T18:35:05.293Z,12.45
2019-05-03T18:37:09.440Z,9.48
2019-05-03T18:39:14.707Z,8.78
2019-05-03T18:41:21.702Z,16.57
2019-05-03T18:43:34.582Z,18.37
2019-05-03T18:45:40.277Z,13.00
2019-05-03T18:47:44.996Z,11.73
2019-05-03T18:49:49.011Z,10.75
2019-05-03T18:51:53.019Z,10.35
2019-05-03T18:53:57.129Z,12.23
2019-05-03T18:56:01.140Z,9.60
2019-05-03T18:58:05.349Z,11.88
2019-05-03T19:00:15.545Z,14.80
2019-05-03T19:02:19.577Z,15.08
2019-05-03T19:04:34.121Z,18.57
2019-05-03T19:06:30.943Z,16.25
2019-05-03T19:08:42.231Z,22.42
2019-05-03T19:10:50.401Z,27.85
2019-05-03T19:12:55.939Z,19.30
2019-05-03T19:15:00.142Z,18.27
2019-05-03T19:17:05.793Z,17.62
2019-05-03T19:19:10.718Z,15.20
2019-05-03T19:21:15.055Z,12.63
2019-05-03T19:23:22.009Z,14.98
2019-05-03T19:25:25.990Z,14.68
2019-05-03T19:27:29.950Z,11.35
2019-05-03T19:29:35.571Z,15.48
2019-05-03T19:31:39.901Z,15.85
2019-05-03T19:33:45.695Z,16.20
2019-05-03T19:35:49.536Z,15.05
2019-05-03T19:37:55.330Z,15.95
2019-05-03T19:39:59.397Z,12.78
2019-05-03T19:42:03.528Z,15.20
2019-05-03T19:44:07.528Z,16.85
2019-05-03T19:46:11.684Z,18.85
2019-05-03T19:48:17.006Z,14.93
2019-05-03T19:50:24.846Z,15.88
2019-05-03T19:52:34.309Z,20.23
2019-05-03T19:54:44.863Z,19.48
2019-05-03T19:56:50.667Z,14.73
2019-05-03T19:58:58.557Z,21.70
2019-05-03T20:01:20.436Z,19.37
2019-05-03T20:03:32.447Z,15.30
2019-05-03T20:05:49.643Z,14.98
2019-05-03T20:08:05.057Z,16.00
2019-05-03T20:10:09.281Z,14.93
2019-05-03T20:12:15.166Z,15.18
2019-05-03T20:14:19.705Z,25.17
2019-05-03T20:16:24.228Z,29.23
2019-05-03T20:18:28.437Z,26.82
2019-05-03T20:20:34.483Z,21.90
2019-05-03T20:22:38.629Z,20.00
2019-05-03T20:24:46.059Z,17.67
2019-05-03T20:26:50.816Z,20.68
2019-05-03T20:28:55.453Z,17.62
2019-05-03T20:31:01.225Z,18.85
2019-05-03T20:33:05.559Z,17.90
2019-05-03T20:35:25.327Z,21.80
2019-05-03T20:37:29.696Z,20.88
2019-05-03T20:39:34.824Z,24.87
2019-05-03T20:41:42.251Z,23.02
2019-05-03T20:43:47.803Z,30.65
2019-05-03T20:46:10.546Z,27.30
2019-05-03T20:48:19.174Z,28.15
2019-05-03T20:50:24.745Z,18.67
2019-05-03T20:52:29.390Z,22.13
2019-05-03T20:54:34.996Z,18.15
2019-05-03T20:56:39.248Z,20.82
2019-05-03T20:58:44.634Z,21.15
2019-05-03T21:00:49.108Z,19.45
2019-05-03T21:02:54.772Z,20.92
2019-05-03T21:04:58.970Z,25.62
2019-05-03T21:07:04.664Z,23.57
2019-05-03T21:09:09.445Z,24.90
2019-05-03T21:11:14.790Z,24.20
2019-05-03T21:13:19.530Z,21.55
2019-05-03T21:15:41.331Z,18.60
2019-05-03T21:18:04.834Z,19.25
2019-05-03T21:22:16.105Z,21.17
2019-05-03T21:24:24.137Z,23.35
2019-05-03T21:26:27.685Z,20.00
2019-05-03T21:28:31.791Z,25.90
2019-05-03T21:30:35.708Z,20.30
2019-05-03T21:32:39.811Z,22.67
2019-05-03T21:34:45.158Z,22.82
2019-05-03T21:36:49.466Z,24.05
2019-05-03T21:38:54.850Z,24.95
2019-05-03T21:40:58.999Z,22.05
2019-05-03T21:43:05.994Z,24.72
2019-05-03T21:45:12.442Z,24.43
2019-05-03T21:47:21.174Z,23.30
2019-05-03T21:49:35.523Z,24.20
2019-05-03T21:51:39.742Z,21.15
2019-05-03T21:53:45.052Z,21.05
2019-05-03T21:55:49.377Z,21.23
2019-05-03T21:57:55.185Z,20.45
2019-05-03T21:59:59.281Z,20.55
2019-05-03T22:02:05.062Z,19.98
2019-05-03T22:04:12.070Z,22.67
2019-05-03T22:06:17.162Z,24.00
2019-05-03T22:08:21.529Z,19.98
2019-05-03T22:10:25.670Z,22.93
2019-05-03T22:12:29.835Z,22.42
2019-05-03T22:14:47.375Z,19.45
2019-05-03T22:16:52.917Z,22.15
2019-05-03T22:18:57.021Z,22.70
2019-05-03T22:21:05.622Z,22.17
2019-05-03T22:23:11.438Z,22.50
2019-05-03T22:25:17.139Z,20.62
2019-05-03T22:27:24.520Z,23.62
2019-05-03T22:29:26.939Z,25.57
2019-05-03T22:31:31.417Z,26.00
2019-05-03T22:33:35.462Z,22.05
2019-05-03T22:35:41.273Z,26.10
2019-05-03T22:37:45.131Z,21.33
2019-05-03T22:39:49.289Z,21.37
2019-05-03T22:41:53.608Z,24.32
2019-05-03T22:43:57.534Z,23.42
2019-05-03T22:46:01.417Z,23.92
2019-05-03T22:48:05.352Z,25.25
2019-05-03T22:50:09.398Z,26.48
2019-05-03T22:52:15.266Z,27.00
2019-05-03T22:54:18.763Z,27.25
2019-05-03T22:56:24.748Z,22.52
2019-05-03T22:58:28.171Z,22.90
2019-05-03T23:00:35.270Z,26.40
2019-05-03T23:02:37.545Z,28.50
2019-05-03T23:04:41.391Z,23.95
2019-05-03T23:06:47.085Z,26.15
2019-05-03T23:08:50.817Z,22.10
2019-05-03T23:10:54.800Z,18.77
2019-05-03T23:12:58.730Z,27.73
2019-05-03T23:15:04.390Z,22.85
2019-05-03T23:17:08.174Z,23.35
2019-05-03T23:19:12.078Z,21.15
2019-05-03T23:21:24.422Z,22.22
2019-05-03T23:23:46.072Z,20.30
2019-05-03T23:25:50.021Z,19.62
2019-05-03T23:27:55.144Z,20.05
2019-05-03T23:29:59.367Z,22.05
2019-05-03T23:32:04.692Z,18.57
2019-05-03T23:34:08.692Z,20.68
2019-05-03T23:36:12.714Z,20.88
2019-05-03T23:38:16.831Z,23.80
2019-05-03T23:40:20.839Z,22.87
2019-05-03T23:42:24.848Z,18.90
2019-05-03T23:44:28.871Z,22.95
2019-05-03T23:46:34.835Z,23.55
2019-05-03T23:48:38.819Z,17.80
2019-05-03T23:50:44.552Z,18.48
2019-05-03T23:52:48.271Z,16.80
2019-05-03T23:54:52.250Z,16.85
2019-05-03T23:56:56.185Z,17.17
2019-05-03T23:59:00.183Z,17.25
